Time;durP1;ratioP1;P1;durP2;ratioP2;P2;SDS_P1;SDS_P2;PMS_P1;PMS_P2;Temp;Humidity;BMP_temperature;BMP_pressure;BME280_temperature;BME280_humidity;BME280_pressure;Samples;Min_cycle;Max_cycle;Signal;HPM_P1;HPM_P2
2023/09/04 00:02:20;;;;;;;1.57;1.20;;;20.40;77.20;19.60;97480.00;;;;5029258;28;20189;-81
2023/09/04 00:04:47;;;;;;;1.83;1.13;;;20.40;77.20;19.50;97480.00;;;;5029776;28;20285;-81
2023/09/04 00:07:15;;;;;;;1.27;1.20;;;20.40;77.20;19.50;97477.00;;;;5026885;28;20194;-81
2023/09/04 00:09:42;;;;;;;1.30;1.20;;;20.40;77.20;19.50;97489.00;;;;5029729;28;20205;-82
2023/09/04 00:12:09;;;;;;;1.40;1.33;;;20.30;77.20;19.50;97482.00;;;;5034401;28;20205;-82
2023/09/04 00:14:38;;;;;;;1.63;1.50;;;20.30;77.20;19.50;97491.00;;;;5022715;28;20195;-82
2023/09/04 00:17:05;;;;;;;3.67;1.30;;;20.30;77.20;19.40;97487.00;;;;5031781;28;20214;-81
2023/09/04 00:19:34;;;;;;;1.53;1.43;;;20.30;77.40;19.40;97492.00;;;;5037864;28;20219;-81
2023/09/04 00:22:01;;;;;;;1.20;1.20;;;20.30;77.60;19.40;97494.00;;;;5035974;28;20285;-82
2023/09/04 00:24:28;;;;;;;2.30;1.50;;;20.20;77.80;19.40;97495.00;;;;5032875;28;20197;-82
2023/09/04 00:26:55;;;;;;;1.57;1.47;;;20.20;77.90;19.40;97495.00;;;;5027257;28;20223;-81
2023/09/04 00:29:23;;;;;;;1.47;1.37;;;20.20;78.00;19.40;97495.00;;;;5007798;28;20555;-81
2023/09/04 00:31:52;;;;;;;1.90;1.80;;;20.20;77.90;19.40;97501.00;;;;5039341;28;20196;-81
2023/09/04 00:34:19;;;;;;;1.50;1.40;;;20.20;77.70;19.40;97495.00;;;;5030988;28;20287;-81
2023/09/04 00:36:46;;;;;;;1.53;1.43;;;20.20;77.80;19.40;97495.00;;;;5031928;28;20214;-81
2023/09/04 00:39:14;;;;;;;2.13;1.30;;;20.20;77.80;19.30;97488.00;;;;5030251;28;20220;-80
2023/09/04 00:41:41;;;;;;;2.17;1.50;;;20.20;77.80;19.30;97490.00;;;;5028295;28;20201;-81
2023/09/04 00:44:09;;;;;;;2.07;1.53;;;20.20;77.80;19.30;97494.00;;;;5034236;28;20558;-81
2023/09/04 00:46:38;;;;;;;1.50;1.40;;;20.10;77.70;19.30;97491.00;;;;5026918;28;20219;-81
2023/09/04 00:49:07;;;;;;;1.50;1.40;;;20.10;77.80;19.30;97497.00;;;;5020813;28;20211;-80
2023/09/04 00:51:34;;;;;;;1.50;1.40;;;20.10;77.80;19.20;97496.00;;;;5022838;28;20301;-80
2023/09/04 00:54:03;;;;;;;1.70;1.60;;;20.10;77.80;19.20;97496.00;;;;5023042;28;20198;-80
2023/09/04 00:56:31;;;;;;;1.70;1.47;;;20.10;78.00;19.20;97491.00;;;;5031556;28;20212;-80
2023/09/04 00:58:58;;;;;;;2.10;1.57;;;20.10;78.80;19.20;97491.00;;;;5032191;28;20406;-80
2023/09/04 01:01:27;;;;;;;1.60;1.50;;;20.00;78.20;19.30;97494.00;;;;5027708;28;20207;-80
2023/09/04 01:03:54;;;;;;;1.63;1.40;;;20.00;78.40;19.30;97493.00;;;;5034125;28;20240;-80
2023/09/04 01:06:23;;;;;;;1.37;1.27;;;20.00;78.40;19.20;97493.00;;;;5028263;28;20223;-81
2023/09/04 01:08:50;;;;;;;1.93;1.63;;;20.00;78.30;19.20;97490.00;;;;5031868;28;20207;-80
2023/09/04 01:11:30;;;;;;;2.07;1.57;;;20.00;78.30;19.20;97487.00;;;;5034725;28;20190;-81
2023/09/04 01:13:58;;;;;;;1.53;1.30;;;20.10;78.10;19.20;97482.00;;;;5032077;28;20243;-80
2023/09/04 01:16:26;;;;;;;1.87;1.60;;;20.00;78.10;19.20;97481.00;;;;5027288;28;20296;-80
2023/09/04 01:18:55;;;;;;;1.53;1.43;;;20.00;78.00;19.20;97484.00;;;;5032060;28;20289;-80
2023/09/04 01:21:23;;;;;;;1.60;1.50;;;20.00;77.80;19.10;97477.00;;;;5039440;28;20228;-80
2023/09/04 01:23:51;;;;;;;1.40;1.30;;;20.00;77.70;19.10;97474.00;;;;5031939;28;20189;-81
2023/09/04 01:26:25;;;;;;;1.80;1.70;;;19.90;77.60;19.00;97465.00;;;;5028459;28;20215;-80
2023/09/04 01:29:06;;;;;;;2.20;1.57;;;19.90;77.40;19.00;97467.00;;;;5031495;28;20256;-80
2023/09/04 01:31:39;;;;;;;1.70;1.50;;;19.90;77.30;19.00;97466.00;;;;5020586;28;20276;-80
2023/09/04 01:34:11;;;;;;;1.53;1.43;;;19.90;77.50;19.00;97464.00;;;;5021828;28;20293;-80
2023/09/04 01:36:43;;;;;;;1.80;1.43;;;19.90;77.50;18.90;97458.00;;;;5039307;28;20224;-80
2023/09/04 01:39:11;;;;;;;1.53;1.43;;;19.80;77.40;18.90;97464.00;;;;5038776;28;20218;-80
2023/09/04 01:41:39;;;;;;;1.40;1.30;;;19.80;77.60;18.90;97449.00;;;;5031903;28;20219;-81
2023/09/04 01:44:07;;;;;;;3.23;1.60;;;19.70;77.70;18.80;97453.00;;;;5031089;28;20205;-81
2023/09/04 01:46:34;;;;;;;1.90;1.37;;;19.70;77.70;18.80;97463.00;;;;5028943;28;20205;-81
2023/09/04 01:49:01;;;;;;;1.73;1.63;;;19.70;77.80;18.80;97461.00;;;;5026471;28;20209;-81
2023/09/04 01:51:29;;;;;;;1.50;1.40;;;19.70;77.80;18.80;97447.00;;;;5019525;28;20208;-81
2023/09/04 01:53:58;;;;;;;1.50;1.40;;;19.60;77.70;18.70;97455.00;;;;5023294;28;20203;-80
2023/09/04 01:56:25;;;;;;;1.67;1.50;;;19.60;77.90;18.70;97446.00;;;;5024791;28;20213;-81
2023/09/04 01:58:53;;;;;;;1.63;1.40;;;19.60;78.00;18.70;97462.00;;;;5026373;28;20228;-81
2023/09/04 02:01:20;;;;;;;1.70;1.60;;;19.60;77.90;18.70;97461.00;;;;5026289;28;20190;-81
2023/09/04 02:03:55;;;;;;;1.73;1.63;;;19.50;78.00;18.60;97458.00;;;;5024256;28;20602;-80
2023/09/04 02:06:23;;;;;;;2.10;1.90;;;19.50;78.10;18.60;97462.00;;;;5021302;28;20213;-80
2023/09/04 02:08:51;;;;;;;1.57;1.47;;;19.50;78.30;18.60;97464.00;;;;5021161;28;20202;-80
2023/09/04 02:11:19;;;;;;;1.87;1.77;;;19.50;78.40;18.60;97462.00;;;;5019502;28;20571;-80
2023/09/04 02:13:47;;;;;;;2.00;1.90;;;19.50;78.50;18.60;97452.00;;;;5019709;28;20204;-81
2023/09/04 02:16:14;;;;;;;1.80;1.70;;;19.50;78.50;18.60;97456.00;;;;5018543;28;20211;-80
2023/09/04 02:18:42;;;;;;;2.60;2.00;;;19.50;78.50;18.60;97460.00;;;;5020158;28;20214;-81
2023/09/04 02:21:10;;;;;;;2.00;1.90;;;19.50;78.60;18.60;97448.00;;;;5018605;28;20216;-80
2023/09/04 02:23:37;;;;;;;2.17;1.97;;;19.40;79.40;18.60;97448.00;;;;5029628;28;20227;-81
2023/09/04 02:26:05;;;;;;;2.00;1.90;;;19.50;78.70;18.60;97454.00;;;;5023924;28;20205;-81
2023/09/04 02:28:33;;;;;;;2.13;2.03;;;19.40;78.60;18.60;97455.00;;;;5024017;28;20193;-80
2023/09/04 02:31:07;;;;;;;3.03;1.90;;;19.50;78.80;18.60;97457.00;;;;5022144;28;20194;-81
2023/09/04 02:33:35;;;;;;;2.27;2.13;;;19.40;79.30;18.60;97447.00;;;;5028929;28;20205;-80
2023/09/04 02:36:03;;;;;;;2.20;2.10;;;19.40;78.70;18.60;97441.00;;;;5015106;28;20718;-80
2023/09/04 02:38:30;;;;;;;2.00;1.90;;;19.40;79.50;18.60;97443.00;;;;5031956;28;20197;-81
2023/09/04 02:40:57;;;;;;;2.17;2.07;;;19.40;78.80;18.60;97446.00;;;;5022417;28;20206;-81
2023/09/04 02:43:24;;;;;;;2.77;2.57;;;19.40;78.90;18.60;97440.00;;;;5025124;28;20197;-81
2023/09/04 02:45:53;;;;;;;2.23;2.13;;;19.40;79.00;18.60;97440.00;;;;5014678;28;20218;-80
2023/09/04 02:48:20;;;;;;;2.50;2.33;;;19.40;79.00;18.60;97440.00;;;;5020001;28;20655;-80
2023/09/04 02:50:48;;;;;;;2.30;2.10;;;19.40;79.70;18.60;97442.00;;;;5021087;28;20194;-81
2023/09/04 02:53:15;;;;;;;2.53;2.33;;;19.40;79.00;18.60;97439.00;;;;5021313;28;20200;-81
2023/09/04 02:55:48;;;;;;;2.87;2.67;;;19.40;79.00;18.60;97441.00;;;;5029335;28;20715;-80
2023/09/04 02:58:17;;;;;;;2.53;2.33;;;19.40;78.80;18.60;97444.00;;;;5013032;28;20193;-80
2023/09/04 03:00:44;;;;;;;2.33;2.20;;;19.40;79.10;18.60;97446.00;;;;5031756;28;20221;-80
2023/09/04 03:03:13;;;;;;;3.33;2.70;;;19.40;79.20;18.60;97444.00;;;;5022607;28;20196;-80
2023/09/04 03:05:40;;;;;;;2.40;2.20;;;19.40;79.10;18.50;97445.00;;;;5022659;28;20217;-81
2023/09/04 03:08:08;;;;;;;2.50;2.30;;;19.40;79.00;18.50;97443.00;;;;5017011;28;20198;-80
2023/09/04 03:10:35;;;;;;;2.27;2.13;;;19.40;78.80;18.50;97436.00;;;;5020728;28;20194;-80
2023/09/04 03:13:02;;;;;;;2.60;2.40;;;19.40;78.80;18.50;97436.00;;;;5035519;28;20194;-80
2023/09/04 03:15:30;;;;;;;2.30;2.20;;;19.30;78.70;18.50;97437.00;;;;5029814;28;20600;-80
2023/09/04 03:17:57;;;;;;;2.50;2.40;;;19.30;78.70;18.50;97435.00;;;;5024917;28;20585;-80
2023/09/04 03:20:26;;;;;;;2.20;2.10;;;19.30;78.70;18.40;97449.00;;;;5031618;28;20703;-80
2023/09/04 03:22:53;;;;;;;2.67;2.40;;;19.30;78.70;18.40;97452.00;;;;5004108;28;20653;-80
2023/09/04 03:25:20;;;;;;;2.60;2.40;;;19.30;78.70;18.40;97449.00;;;;5023986;28;20711;-80
2023/09/04 03:27:47;;;;;;;2.70;2.50;;;19.30;78.70;18.40;97455.00;;;;5027332;28;20192;-80
2023/09/04 03:30:15;;;;;;;2.60;2.43;;;19.20;78.70;18.40;97453.00;;;;5028224;28;20205;-80
2023/09/04 03:32:42;;;;;;;2.70;2.50;;;19.20;78.50;18.40;97453.00;;;;5027950;28;20194;-80
2023/09/04 03:35:10;;;;;;;2.10;2.00;;;19.20;78.50;18.30;97457.00;;;;5032858;28;20262;-80
2023/09/04 03:37:38;;;;;;;2.83;2.60;;;19.20;78.50;18.30;97456.00;;;;5028307;28;20570;-80
2023/09/04 03:40:20;;;;;;;2.20;2.10;;;19.20;78.50;18.30;97455.00;;;;5028774;28;20248;-80
2023/09/04 03:42:47;;;;;;;2.13;2.03;;;19.10;78.20;18.30;97454.00;;;;5022298;28;20586;-80
2023/09/04 03:45:15;;;;;;;2.60;2.30;;;19.10;78.50;18.20;97441.00;;;;5031170;28;20641;-80
2023/09/04 03:47:43;;;;;;;2.43;2.33;;;19.10;78.40;18.20;97449.00;;;;5026028;28;20695;-80
2023/09/04 03:50:11;;;;;;;2.70;2.50;;;19.10;79.10;18.20;97451.00;;;;5024977;28;20217;-80
2023/09/04 03:52:42;;;;;;;2.40;2.20;;;19.10;78.50;18.20;97463.00;;;;5026105;28;20244;-81
2023/09/04 03:55:12;;;;;;;2.80;2.60;;;19.00;78.40;18.10;97465.00;;;;5023598;28;20616;-80
2023/09/04 03:57:39;;;;;;;3.03;2.73;;;19.00;78.60;18.10;97457.00;;;;5025047;28;20197;-81
2023/09/04 04:00:14;;;;;;;2.57;2.37;;;19.00;78.40;18.10;97462.00;;;;5027522;28;20217;-80
2023/09/04 04:02:42;;;;;;;3.00;2.70;;;19.00;78.40;18.10;97467.00;;;;5025240;28;20581;-80
2023/09/04 04:05:11;;;;;;;2.93;2.73;;;19.00;78.40;18.10;97470.00;;;;5027171;28;20209;-80
2023/09/04 04:07:40;;;;;;;3.70;2.77;;;19.00;78.40;18.00;97479.00;;;;5019676;28;20198;-80
2023/09/04 04:10:09;;;;;;;2.30;2.20;;;18.90;78.50;18.00;97470.00;;;;5027547;28;20231;-80
2023/09/04 04:12:36;;;;;;;2.50;2.30;;;18.90;78.60;18.00;97466.00;;;;5034434;28;20215;-80
2023/09/04 04:15:06;;;;;;;2.67;2.47;;;18.90;78.60;18.00;97462.00;;;;5026910;28;20202;-80
2023/09/04 04:17:34;;;;;;;2.70;2.50;;;18.90;78.60;18.00;97459.00;;;;5028489;28;20681;-80
2023/09/04 04:20:02;;;;;;;2.50;2.40;;;18.90;78.60;18.00;97464.00;;;;5024195;28;20237;-80
2023/09/04 04:22:29;;;;;;;2.63;2.43;;;18.80;78.50;17.90;97457.00;;;;5024701;28;20190;-80
2023/09/04 04:24:57;;;;;;;2.87;2.67;;;18.80;78.50;17.90;97464.00;;;;5031553;28;20227;-80
2023/09/04 04:27:25;;;;;;;2.63;2.30;;;18.80;78.50;17.90;97464.00;;;;5024576;28;20663;-80
2023/09/04 04:29:54;;;;;;;3.23;2.93;;;18.80;78.60;17.90;97472.00;;;;5026430;28;20200;-80
2023/09/04 04:32:22;;;;;;;3.03;2.73;;;18.70;78.60;17.90;97474.00;;;;5031004;28;20609;-80
2023/09/04 04:34:49;;;;;;;2.60;2.40;;;18.70;78.50;17.90;97474.00;;;;5026877;28;20198;-80
2023/09/04 04:37:16;;;;;;;5.00;2.57;;;18.70;78.70;17.90;97468.00;;;;5032446;28;20193;-80
2023/09/04 04:39:44;;;;;;;2.77;2.57;;;18.70;79.00;17.80;97466.00;;;;5027521;28;20218;-80
2023/09/04 04:42:12;;;;;;;3.20;2.93;;;18.70;79.00;17.80;97466.00;;;;5027296;28;20194;-80
2023/09/04 04:44:40;;;;;;;3.00;2.80;;;18.70;79.10;17.90;97472.00;;;;5037733;28;20276;-80
2023/09/04 04:47:07;;;;;;;3.00;2.80;;;18.70;79.10;17.80;97467.00;;;;5036067;28;20213;-80
2023/09/04 04:49:35;;;;;;;3.13;2.93;;;18.70;79.20;17.90;97475.00;;;;5034404;28;20193;-80
2023/09/04 04:52:02;;;;;;;3.20;3.00;;;18.70;79.20;17.90;97475.00;;;;5030427;28;20586;-80
2023/09/04 04:54:30;;;;;;;2.70;2.50;;;18.70;79.20;17.90;97476.00;;;;5032021;28;20711;-80
2023/09/04 04:56:57;;;;;;;3.17;2.83;;;18.70;79.30;17.90;97474.00;;;;5035060;28;20217;-80
2023/09/04 04:59:26;;;;;;;3.30;3.00;;;18.70;79.40;17.90;97473.00;;;;5027368;28;20232;-80
2023/09/04 05:01:54;;;;;;;3.77;3.47;;;18.80;79.50;18.00;97485.00;;;;5027686;28;20624;-80
2023/09/04 05:04:21;;;;;;;2.80;2.60;;;18.80;79.50;18.00;97478.00;;;;5037473;28;20612;-80
2023/09/04 05:06:50;;;;;;;3.00;2.80;;;18.80;79.50;18.00;97467.00;;;;5027483;28;20236;-80
2023/09/04 05:09:18;;;;;;;4.00;3.70;;;18.80;79.60;18.00;97470.00;;;;5030790;28;20568;-80
2023/09/04 05:11:45;;;;;;;2.93;2.73;;;18.90;79.70;18.00;97468.00;;;;5021187;28;20198;-80
2023/09/04 05:14:12;;;;;;;3.40;3.20;;;18.90;79.70;18.10;97472.00;;;;5025150;28;20194;-80
2023/09/04 05:16:41;;;;;;;3.10;2.90;;;18.90;79.80;18.10;97469.00;;;;5024756;28;20214;-80
2023/09/04 05:19:09;;;;;;;3.10;2.90;;;18.90;79.80;18.10;97472.00;;;;5032356;28;20198;-81
2023/09/04 05:21:36;;;;;;;3.60;3.30;;;19.00;79.90;18.20;97483.00;;;;5032780;28;20216;-80
2023/09/04 05:24:05;;;;;;;3.27;3.07;;;19.00;80.00;18.20;97484.00;;;;5029092;28;20189;-80
2023/09/04 05:26:32;;;;;;;3.47;3.17;;;19.00;80.10;18.20;97481.00;;;;5020861;28;20228;-80
2023/09/04 05:28:59;;;;;;;2.97;2.77;;;19.00;80.00;18.20;97484.00;;;;5022946;28;20194;-80
2023/09/04 05:31:26;;;;;;;3.70;3.27;;;19.00;80.00;18.30;97490.00;;;;5023653;28;20194;-81
2023/09/04 05:33:55;;;;;;;3.17;2.93;;;19.10;80.10;18.30;97495.00;;;;5027830;28;20186;-81
2023/09/04 05:36:22;;;;;;;3.07;2.87;;;19.10;80.10;18.30;97491.00;;;;5031014;28;20210;-81
2023/09/04 05:38:49;;;;;;;2.90;2.70;;;19.10;80.20;18.40;97483.00;;;;5037219;28;20205;-81
2023/09/04 05:41:17;;;;;;;3.03;2.83;;;19.10;80.20;18.40;97474.00;;;;5037185;28;20223;-80
2023/09/04 05:43:44;;;;;;;3.37;3.17;;;19.10;80.20;18.40;97468.00;;;;5036497;28;20280;-81
2023/09/04 05:46:11;;;;;;;3.10;2.90;;;19.20;80.30;18.40;97478.00;;;;5036787;28;20219;-81
2023/09/04 05:48:38;;;;;;;3.13;2.93;;;19.20;80.30;18.50;97475.00;;;;5036346;28;20209;-81
2023/09/04 05:51:07;;;;;;;3.43;3.13;;;19.30;80.40;18.50;97484.00;;;;5022347;28;20738;-80
2023/09/04 05:53:34;;;;;;;3.30;3.00;;;19.30;80.40;18.50;97486.00;;;;5028764;28;20190;-80
2023/09/04 05:56:06;;;;;;;4.03;3.27;;;19.30;80.40;18.60;97482.00;;;;5032225;28;20232;-80
2023/09/04 05:58:34;;;;;;;2.83;2.63;;;19.30;80.30;18.60;97492.00;;;;5049250;28;20204;-80
2023/09/04 06:01:01;;;;;;;3.07;2.80;;;19.30;80.40;18.60;97496.00;;;;5014094;28;20286;-80
2023/09/04 06:03:29;;;;;;;3.70;3.40;;;19.40;80.40;18.60;97490.00;;;;5030676;28;20199;-80
2023/09/04 06:05:56;;;;;;;2.97;2.77;;;19.40;80.30;18.70;97495.00;;;;5019849;28;20706;-81
2023/09/04 06:08:24;;;;;;;3.57;3.27;;;19.40;80.30;18.70;97491.00;;;;5027666;28;20189;-80
2023/09/04 06:10:51;;;;;;;2.90;2.70;;;19.50;80.50;18.70;97494.00;;;;5023419;28;20289;-80
2023/09/04 06:13:19;;;;;;;3.00;2.80;;;19.50;80.60;18.80;97490.00;;;;5031724;28;20213;-81
2023/09/04 06:15:46;;;;;;;2.97;2.77;;;19.50;80.60;18.80;97505.00;;;;5025681;28;20209;-80
2023/09/04 06:18:13;;;;;;;3.33;3.13;;;19.50;80.70;18.80;97510.00;;;;5029412;28;20190;-80
2023/09/04 06:20:40;;;;;;;3.13;2.93;;;19.60;80.70;18.80;97503.00;;;;5040363;28;20308;-81
2023/09/04 06:23:18;;;;;;;2.90;2.70;;;19.60;80.70;18.90;97501.00;;;;5038208;28;20204;-81
2023/09/04 06:25:46;;;;;;;3.33;2.90;;;19.70;80.80;18.90;97505.00;;;;5036226;28;20280;-81
2023/09/04 06:28:16;;;;;;;4.83;2.97;;;19.60;80.70;18.90;97505.00;;;;5036095;28;20200;-81
2023/09/04 06:30:44;;;;;;;3.10;2.83;;;19.70;80.80;19.00;97503.00;;;;5036964;28;20265;-81
2023/09/04 06:33:12;;;;;;;3.40;3.20;;;19.70;80.80;19.00;97501.00;;;;5039025;28;20216;-81
2023/09/04 06:35:39;;;;;;;3.50;3.20;;;19.70;80.80;19.00;97491.00;;;;5045693;28;20217;-81
2023/09/04 06:38:06;;;;;;;3.30;3.10;;;19.70;80.90;19.10;97492.00;;;;5037446;28;20620;-81
2023/09/04 06:40:33;;;;;;;3.47;3.27;;;19.80;81.00;19.10;97495.00;;;;5037001;28;20224;-80
2023/09/04 06:43:02;;;;;;;3.33;3.13;;;19.80;81.10;19.10;97494.00;;;;5042573;28;20363;-82
2023/09/04 06:45:29;;;;;;;3.50;3.30;;;19.90;81.10;19.20;97501.00;;;;5034880;28;20222;-81
2023/09/04 06:47:57;;;;;;;3.60;3.40;;;19.90;81.10;19.20;97504.00;;;;5037161;28;20262;-81
2023/09/04 06:50:24;;;;;;;3.60;3.30;;;19.90;81.10;19.30;97510.00;;;;5039097;28;20254;-81
2023/09/04 06:52:52;;;;;;;3.60;3.33;;;19.90;81.30;19.30;97511.00;;;;5034093;28;20193;-80
2023/09/04 06:55:19;;;;;;;3.30;3.10;;;20.00;81.40;19.40;97514.00;;;;5039562;28;20231;-79
2023/09/04 06:57:46;;;;;;;4.00;3.70;;;20.00;81.40;19.40;97515.00;;;;5031859;28;20273;-80
2023/09/04 07:00:16;;;;;;;3.67;3.37;;;20.10;81.50;19.50;97524.00;;;;5038258;28;20225;-79
2023/09/04 07:02:46;;;;;;;3.00;2.80;;;20.10;81.60;19.50;97524.00;;;;5039063;28;20196;-80
2023/09/04 07:05:14;;;;;;;3.90;3.60;;;20.10;81.70;19.60;97517.00;;;;5021270;28;20214;-78
2023/09/04 07:07:41;;;;;;;4.27;3.40;;;20.20;81.80;19.60;97515.00;;;;5026813;28;20626;-80
2023/09/04 07:10:09;;;;;;;3.37;3.17;;;20.30;81.80;19.70;97525.00;;;;5035575;28;20287;-79
2023/09/04 07:12:37;;;;;;;4.00;3.70;;;20.30;81.80;19.70;97521.00;;;;5048515;28;20286;-80
2023/09/04 07:15:05;;;;;;;3.50;3.20;;;20.40;81.90;19.80;97522.00;;;;5029296;28;20190;-81
2023/09/04 07:17:34;;;;;;;3.80;3.50;;;20.40;81.80;19.90;97526.00;;;;5037856;28;20288;-81
2023/09/04 07:20:01;;;;;;;4.07;3.77;;;20.50;81.90;19.90;97536.00;;;;5031549;28;20236;-80
2023/09/04 07:22:28;;;;;;;3.73;3.50;;;20.50;82.10;20.00;97539.00;;;;5032546;28;20209;-79
2023/09/04 07:24:56;;;;;;;3.63;3.33;;;20.60;82.20;20.10;97543.00;;;;5024798;28;20205;-80
2023/09/04 07:27:24;;;;;;;3.83;3.53;;;20.70;82.30;20.20;97547.00;;;;5033009;28;20745;-79
2023/09/04 07:29:51;;;;;;;4.00;3.60;;;20.80;82.40;20.30;97556.00;;;;5031259;28;20197;-80
2023/09/04 07:32:19;;;;;;;3.83;3.53;;;20.80;82.40;20.40;97553.00;;;;5031667;28;20201;-80
2023/09/04 07:34:47;;;;;;;3.53;3.33;;;21.00;82.50;20.50;97554.00;;;;5036190;28;20431;-79
2023/09/04 07:37:14;;;;;;;3.87;3.57;;;21.10;82.20;20.60;97555.00;;;;5033943;28;20659;-80
2023/09/04 07:39:43;;;;;;;3.50;3.20;;;21.20;82.20;20.70;97563.00;;;;5032189;28;20209;-80
2023/09/04 07:42:12;;;;;;;3.80;3.57;;;21.30;82.20;20.80;97574.00;;;;5031737;28;20221;-80
2023/09/04 07:44:39;;;;;;;3.77;3.47;;;21.40;82.10;21.00;97568.00;;;;5037298;28;20567;-80
2023/09/04 07:47:06;;;;;;;3.70;3.40;;;21.50;82.00;21.10;97565.00;;;;5032872;28;20595;-80
2023/09/04 07:49:33;;;;;;;3.73;3.43;;;21.60;82.00;21.20;97567.00;;;;5034242;28;20345;-80
2023/09/04 07:52:02;;;;;;;3.13;2.83;;;21.70;81.90;21.30;97561.00;;;;5036350;28;20230;-79
2023/09/04 07:54:29;;;;;;;3.77;3.33;;;21.80;81.50;21.40;97559.00;;;;5035482;28;20220;-80
2023/09/04 07:56:59;;;;;;;3.50;3.30;;;21.90;81.40;21.50;97562.00;;;;5033280;28;20240;-81
2023/09/04 07:59:26;;;;;;;3.60;3.30;;;22.00;81.20;21.60;97565.00;;;;5034001;28;20195;-80
2023/09/04 08:01:53;;;;;;;3.60;3.30;;;22.10;81.20;21.70;97562.00;;;;5030311;28;20249;-80
2023/09/04 08:04:20;;;;;;;3.53;3.23;;;22.20;81.00;21.80;97552.00;;;;5034351;28;20213;-80
2023/09/04 08:06:47;;;;;;;3.50;3.20;;;22.30;80.80;21.90;97564.00;;;;5026710;28;20304;-80
2023/09/04 08:09:16;;;;;;;3.40;3.10;;;22.40;80.70;22.00;97557.00;;;;5028606;28;20201;-81
2023/09/04 08:11:44;;;;;;;3.47;3.27;;;22.50;80.30;22.20;97560.00;;;;5037627;28;20664;-81
2023/09/04 08:14:11;;;;;;;2.90;2.70;;;22.60;80.70;22.30;97563.00;;;;5039299;28;20286;-80
2023/09/04 08:16:38;;;;;;;3.23;3.03;;;22.70;80.20;22.40;97566.00;;;;5035787;28;20695;-81
2023/09/04 08:19:06;;;;;;;3.27;3.07;;;22.80;79.70;22.50;97562.00;;;;5031433;28;20194;-80
2023/09/04 08:21:33;;;;;;;3.13;2.83;;;22.90;79.60;22.60;97562.00;;;;5032610;28;20241;-80
2023/09/04 08:24:00;;;;;;;3.20;3.00;;;23.00;79.50;22.60;97562.00;;;;5031281;28;20204;-80
2023/09/04 08:26:29;;;;;;;3.10;2.80;;;23.10;79.40;22.70;97562.00;;;;5034877;28;20219;-80
2023/09/04 08:28:56;;;;;;;4.57;3.30;;;23.20;78.60;22.90;97559.00;;;;5036833;28;20224;-80
2023/09/04 08:31:24;;;;;;;3.00;2.80;;;23.30;78.70;23.00;97563.00;;;;5025011;28;20215;-81
2023/09/04 08:33:51;;;;;;;3.30;3.10;;;23.40;78.70;23.10;97553.00;;;;5032518;28;20236;-80
2023/09/04 08:36:18;;;;;;;3.53;2.73;;;23.50;78.50;23.20;97555.00;;;;5030849;28;20216;-81
2023/09/04 08:38:46;;;;;;;3.23;2.93;;;23.60;78.60;23.30;97555.00;;;;5048021;28;20200;-81
2023/09/04 08:41:17;;;;;;;3.23;3.03;;;23.70;78.30;23.40;97548.00;;;;5044524;28;20595;-81
2023/09/04 08:43:49;;;;;;;3.00;2.80;;;23.80;78.00;23.50;97548.00;;;;5043806;28;20281;-80
2023/09/04 08:46:18;;;;;;;3.33;3.13;;;23.90;77.90;23.60;97547.00;;;;5017183;28;20247;-80
2023/09/04 08:48:47;;;;;;;2.97;2.77;;;24.00;78.00;23.70;97547.00;;;;5048997;28;20275;-80
2023/09/04 08:51:16;;;;;;;3.00;2.80;;;24.10;78.00;23.90;97560.00;;;;5032426;28;20583;-80
2023/09/04 08:53:44;;;;;;;3.13;2.93;;;24.20;77.70;24.00;97564.00;;;;5035621;28;20285;-81
2023/09/04 08:56:13;;;;;;;2.70;2.50;;;24.40;77.50;24.10;97557.00;;;;5038247;28;20714;-80
2023/09/04 08:58:41;;;;;;;3.13;2.93;;;24.50;78.00;24.20;97552.00;;;;5040409;28;20199;-80
2023/09/04 09:01:10;;;;;;;2.87;2.67;;;24.60;77.30;24.30;97559.00;;;;5041029;28;20307;-80
2023/09/04 09:03:38;;;;;;;3.00;2.70;;;24.70;77.00;24.50;97560.00;;;;5034584;28;20619;-80
2023/09/04 09:06:05;;;;;;;3.07;2.87;;;24.80;76.70;24.60;97555.00;;;;5038832;28;20219;-80
2023/09/04 09:08:34;;;;;;;2.77;2.57;;;24.90;76.50;24.70;97561.00;;;;5050430;28;20220;-80
2023/09/04 09:11:03;;;;;;;2.60;2.40;;;25.10;76.40;24.80;97560.00;;;;5038104;28;20202;-80
2023/09/04 09:13:31;;;;;;;2.77;2.53;;;25.20;76.10;25.00;97554.00;;;;5038279;28;20205;-80
2023/09/04 09:15:58;;;;;;;2.93;2.73;;;25.30;75.90;25.10;97556.00;;;;5027460;28;20223;-81
2023/09/04 09:18:43;;;;;;;2.90;2.53;;;25.40;76.30;25.20;97563.00;;;;5029276;28;20212;-80
2023/09/04 09:21:29;;;;;;;2.70;2.50;;;25.50;74.70;25.30;97558.00;;;;5032073;28;20213;-80
2023/09/04 09:24:14;;;;;;;2.93;2.57;;;25.60;74.00;25.40;97558.00;;;;5034536;28;20240;-80
2023/09/04 09:26:45;;;;;;;2.53;2.33;;;25.80;74.30;25.60;97562.00;;;;5034149;28;20224;-80
2023/09/04 09:29:14;;;;;;;2.60;2.40;;;25.90;74.60;25.70;97566.00;;;;5034880;28;20632;-81
2023/09/04 09:31:45;;;;;;;2.87;2.67;;;26.00;74.70;25.80;97561.00;;;;5042290;28;20268;-80
2023/09/04 09:34:16;;;;;;;3.10;2.10;;;26.10;74.40;25.90;97562.00;;;;5043210;28;20216;-80
2023/09/04 09:36:43;;;;;;;2.37;2.17;;;26.20;74.10;26.00;97564.00;;;;5038723;28;20217;-80
2023/09/04 09:39:13;;;;;;;2.40;2.30;;;26.30;73.80;26.10;97553.00;;;;5037169;28;20206;-80
2023/09/04 09:41:40;;;;;;;3.27;1.90;;;26.50;73.50;26.20;97558.00;;;;5041696;28;20221;-81
2023/09/04 09:44:07;;;;;;;2.10;2.00;;;26.60;73.50;26.30;97556.00;;;;5032174;28;20201;-80
2023/09/04 09:46:38;;;;;;;2.20;2.10;;;26.70;73.20;26.40;97546.00;;;;5031585;28;20296;-80
2023/09/04 09:49:07;;;;;;;2.13;2.03;;;26.80;72.40;26.50;97552.00;;;;5034307;28;20609;-80
2023/09/04 09:51:38;;;;;;;2.10;1.97;;;26.80;72.20;26.60;97551.00;;;;5037760;28;20201;-81
2023/09/04 09:54:06;;;;;;;2.55;2.45;;;26.90;72.30;26.70;97541.00;;;;5035588;28;20201;-80
2023/09/04 09:56:35;;;;;;;2.00;1.90;;;27.00;71.20;26.80;97539.00;;;;5025039;28;20244;-81
2023/09/04 09:59:03;;;;;;;2.20;2.00;;;27.10;71.20;26.90;97539.00;;;;5032417;28;20286;-81
2023/09/04 10:01:32;;;;;;;2.08;1.98;;;27.20;71.10;27.00;97541.00;;;;5033009;28;20217;-80
2023/09/04 10:04:01;;;;;;;2.15;1.92;;;27.30;71.10;27.00;97540.00;;;;5039583;28;20212;-81
2023/09/04 10:06:34;;;;;;;1.90;1.80;;;27.40;70.60;27.10;97539.00;;;;5034564;28;20309;-81
2023/09/04 10:09:09;;;;;;;2.20;2.10;;;27.50;70.40;27.20;97543.00;;;;5034855;28;20206;-81
2023/09/04 10:11:57;;;;;;;2.45;2.28;;;27.50;69.90;27.30;97541.00;;;;5030862;28;20201;-81
2023/09/04 10:14:34;;;;;;;2.20;1.98;;;27.60;68.40;27.30;97532.00;;;;5036202;28;20266;-81
2023/09/04 10:17:03;;;;;;;2.13;2.03;;;27.70;68.50;27.40;97523.00;;;;5037635;28;20245;-81
2023/09/04 10:19:35;;;;;;;7.60;2.22;;;27.80;68.30;27.50;97523.00;;;;5024907;28;20711;-81
2023/09/04 10:22:08;;;;;;;2.00;1.90;;;27.80;69.10;27.50;97515.00;;;;5029449;28;20281;-81
2023/09/04 10:25:21;;;;;;;1.85;1.70;;;27.90;68.10;27.60;97512.00;;;;5030466;28;20285;-81
2023/09/04 10:27:57;;;;;;;2.00;1.90;;;28.00;66.30;27.70;97513.00;;;;5035279;28;20201;-81
2023/09/04 10:30:28;;;;;;;1.70;1.40;;;28.10;68.30;27.80;97509.00;;;;5025595;28;20577;-81
2023/09/04 10:32:56;;;;;;;2.63;1.90;;;28.10;67.20;27.90;97511.00;;;;5039110;28;20269;-81
2023/09/04 10:35:28;;;;;;;1.77;1.65;;;28.20;67.40;27.90;97512.00;;;;5033354;28;20213;-80
2023/09/04 10:38:26;;;;;;;1.88;1.77;;;28.30;66.70;28.00;97511.00;;;;5026431;28;20201;-81
2023/09/04 10:41:03;;;;;;;1.73;1.63;;;28.30;66.30;28.10;97509.00;;;;5040119;28;20204;-81
2023/09/04 10:44:08;;;;;;;1.60;1.50;;;28.40;65.40;28.10;97502.00;;;;5030905;28;20243;-81
2023/09/04 10:46:37;;;;;;;1.73;1.63;;;28.50;64.10;28.20;97504.00;;;;5033414;28;20267;-81
2023/09/04 10:49:05;;;;;;;1.50;1.40;;;28.60;66.50;28.20;97517.00;;;;5027090;28;20216;-81
2023/09/04 10:51:37;;;;;;;1.55;1.45;;;28.60;65.80;28.20;97501.00;;;;5031619;28;20557;-81
2023/09/04 10:54:26;;;;;;;2.47;1.50;;;28.60;65.50;28.20;97504.00;;;;5039103;28;20194;-80
2023/09/04 10:56:56;;;;;;;1.80;1.70;;;28.60;62.90;28.20;97505.00;;;;5028784;28;20634;-80
2023/09/04 10:59:24;;;;;;;1.83;1.73;;;28.60;63.80;28.20;97492.00;;;;5038967;28;20640;-81
2023/09/04 11:01:55;;;;;;;1.98;1.63;;;28.60;64.20;28.10;97505.00;;;;5025000;28;20253;-81
2023/09/04 11:04:45;;;;;;;1.67;1.58;;;28.50;63.40;28.10;97503.00;;;;5033029;28;20659;-81